FIMP/MRU METAR and TAF weather

Enter ICAO airport designator
Station Type Date Time Source
FIMP METAR 2019/06/26 22:00 UTC NOAA

FIMP 262200Z 07012KT 5000 -SHRA FEW006 BKN014 BKN045 23/22 Q1019


Station Type Date Time Source
FIMP Decoded METAR 2019/06/26 22:00 UTC NOAA

Plaisance Mauritius , Mauritius (FIMP) 20-26S 057-40E 57M
Jun 26, 2019 - 06:00 PM EDT / 2019.06.26 2200 UTC
Wind: from the ENE (070 degrees) at 14 MPH (12 KT):0
Visibility: 3 mile(s):0
Sky conditions: mostly cloudy
Weather: light rain showers
Temperature: 73 F (23 C)
Dew Point: 71 F (22 C)
Relative Humidity: 94%
Pressure (altimeter): 30.09 in. Hg (1019 hPa)
ob: FIMP 262200Z 07012KT 5000 -SHRA FEW006 BKN014 BKN045 23/22 Q1019
cycle: 22

Station Type Date Time Source
FIMP TAF 2019/06/26 18:36 UTC NOAA

TAF FIMP 261730Z 2618/2800 08015G28KT 5000 -SHRA FEW007 FEW012TCU BKN013
TEMPO 2618/2700 1000 /SHRA/TSRA FEW004 FEW012CB BKN012
BECMG 2704/2706 SCT017

Example: see airport list